createdAt,value
2019-03-27T00:00:38.597Z,5.92
2019-03-27T00:03:12.598Z,2.77
2019-03-27T00:05:45.028Z,1.37
2019-03-27T00:08:17.275Z,4.00
2019-03-27T00:10:49.604Z,5.45
2019-03-27T00:13:21.914Z,3.20
2019-03-27T00:15:54.159Z,4.42
2019-03-27T00:18:26.505Z,3.75
2019-03-27T00:20:59.149Z,1.82
2019-03-27T00:23:31.499Z,3.30
2019-03-27T00:26:03.779Z,1.27
2019-03-27T00:28:36.035Z,5.28
2019-03-27T00:31:11.624Z,2.95
2019-03-27T00:33:42.235Z,5.83
2019-03-27T00:36:14.520Z,3.67
2019-03-27T00:38:46.767Z,2.25
2019-03-27T00:41:19.006Z,4.33
2019-03-27T00:43:51.457Z,2.72
2019-03-27T00:46:25.379Z,3.10
2019-03-27T00:48:57.734Z,3.30
2019-03-27T00:51:30.146Z,1.27
2019-03-27T00:54:02.446Z,5.92
2019-03-27T00:56:34.727Z,4.67
2019-03-27T00:59:07.841Z,2.35
2019-03-27T01:01:40.106Z,7.15
2019-03-27T01:04:12.345Z,2.60
2019-03-27T01:06:44.632Z,4.42
2019-03-27T01:09:16.929Z,2.05
2019-03-27T01:11:51.414Z,3.20
2019-03-27T01:14:23.699Z,1.85
2019-03-27T01:16:56.013Z,3.85
2019-03-27T01:19:28.257Z,2.87
2019-03-27T01:22:09.642Z,3.08
2019-03-27T01:24:49.509Z,2.27
2019-03-27T01:27:29.499Z,3.27
2019-03-27T01:33:30.652Z,2.98
2019-03-27T01:36:09.702Z,4.78
2019-03-27T01:38:42.001Z,3.37
2019-03-27T01:41:14.332Z,9.75
2019-03-27T01:43:48.908Z,4.08
2019-03-27T01:46:21.259Z,3.52
2019-03-27T01:48:53.627Z,44.10
2019-03-27T01:51:32.511Z,4.30
2019-03-27T01:55:26.921Z,3.30
2019-03-27T01:58:20.151Z,7.17
2019-03-27T02:00:54.168Z,4.50
2019-03-27T02:03:26.473Z,3.77
2019-03-27T02:05:59.187Z,6.08
2019-03-27T02:08:31.469Z,4.67
2019-03-27T02:11:04.767Z,4.20
2019-03-27T02:13:37.048Z,2.45
2019-03-27T02:16:45.252Z,6.35
2019-03-27T02:19:19.911Z,4.90
2019-03-27T02:22:02.298Z,4.47
2019-03-27T02:24:36.836Z,6.05
2019-03-27T02:27:16.190Z,12.65
2019-03-27T02:29:56.956Z,6.05
2019-03-27T02:32:35.356Z,7.30
2019-03-27T02:35:32.469Z,9.33
2019-03-27T02:38:07.923Z,9.33
2019-03-27T02:40:41.274Z,9.95
2019-03-27T02:43:31.702Z,8.23
2019-03-27T02:46:04.132Z,7.10
2019-03-27T02:48:40.491Z,8.88
2019-03-27T02:51:30.828Z,5.72
2019-03-27T02:54:03.599Z,4.70
2019-03-27T02:56:35.888Z,4.37
2019-03-27T02:59:09.636Z,6.65
2019-03-27T03:02:02.852Z,7.65
2019-03-27T03:04:58.817Z,6.95
2019-03-27T03:07:34.366Z,4.05
2019-03-27T03:10:57.328Z,4.72
2019-03-27T03:12:54.582Z,5.22
2019-03-27T03:15:28.651Z,6.30
2019-03-27T03:18:09.741Z,6.62
2019-03-27T03:20:42.026Z,6.35
2019-03-27T03:23:24.887Z,6.05
2019-03-27T03:26:06.408Z,3.85
2019-03-27T03:28:38.743Z,5.62
2019-03-27T03:31:18.792Z,5.45
2019-03-27T03:36:59.266Z,5.05
2019-03-27T03:39:31.553Z,2.52
2019-03-27T03:42:03.861Z,5.97
2019-03-27T03:44:36.182Z,8.53
2019-03-27T03:47:08.526Z,4.35
2019-03-27T03:50:01.154Z,5.42
2019-03-27T03:52:38.310Z,6.15
2019-03-27T03:55:24.080Z,5.55
2019-03-27T03:59:36.548Z,6.72
2019-03-27T04:01:22.268Z,4.40
2019-03-27T04:04:03.647Z,4.08
2019-03-27T04:06:37.861Z,6.08
2019-03-27T04:09:12.076Z,3.70
2019-03-27T04:12:11.229Z,4.33
2019-03-27T04:14:43.681Z,6.92
2019-03-27T04:17:18.120Z,5.33
2019-03-27T04:19:50.462Z,4.20
2019-03-27T04:22:23.414Z,6.55
2019-03-27T04:25:14.905Z,9.35
2019-03-27T04:27:47.204Z,6.37
2019-03-27T04:30:19.836Z,7.70
2019-03-27T04:32:52.634Z,6.30
2019-03-27T04:35:27.118Z,11.57
2019-03-27T04:38:03.582Z,4.85
2019-03-27T04:40:36.209Z,4.72
2019-03-27T04:43:16.472Z,4.55
2019-03-27T04:45:48.759Z,4.60
2019-03-27T04:48:21.143Z,4.53
2019-03-27T04:50:55.502Z,4.95
2019-03-27T04:53:28.444Z,6.95
2019-03-27T04:56:01.142Z,4.60
2019-03-27T04:58:33.723Z,3.55
2019-03-27T05:01:06.006Z,3.45
2019-03-27T05:03:38.852Z,4.17
2019-03-27T05:06:11.625Z,4.62
2019-03-27T05:08:43.987Z,5.00
2019-03-27T05:11:16.224Z,3.45
2019-03-27T05:13:48.494Z,4.65
2019-03-27T05:16:20.765Z,5.75
2019-03-27T05:18:53.052Z,4.50
2019-03-27T05:21:25.333Z,6.42
2019-03-27T05:23:57.639Z,4.62
2019-03-27T05:26:29.999Z,4.92
2019-03-27T05:29:02.456Z,5.20
2019-03-27T05:31:35.104Z,3.60
2019-03-27T05:34:07.414Z,3.42
2019-03-27T05:36:41.277Z,2.42
2019-03-27T05:39:14.661Z,5.22
2019-03-27T05:41:47.580Z,4.05
2019-03-27T05:44:19.892Z,5.35
2019-03-27T05:46:52.228Z,5.85
2019-03-27T05:49:24.549Z,3.62
2019-03-27T05:51:56.839Z,4.97
2019-03-27T05:54:29.561Z,5.45
2019-03-27T05:57:02.956Z,5.55
2019-03-27T05:59:39.082Z,4.03
2019-03-27T06:02:11.383Z,6.28
2019-03-27T06:04:43.671Z,5.33
2019-03-27T06:07:15.971Z,5.22
2019-03-27T06:09:48.263Z,4.28
2019-03-27T06:12:21.956Z,3.67
2019-03-27T06:14:54.196Z,5.03
2019-03-27T06:17:27.698Z,10.58
2019-03-27T06:19:59.933Z,2.90
2019-03-27T06:22:32.457Z,4.20
2019-03-27T06:25:05.219Z,7.20
2019-03-27T06:27:38.611Z,6.92
2019-03-27T06:30:11.002Z,7.70
2019-03-27T06:32:43.324Z,5.22
2019-03-27T06:35:20.076Z,6.10
2019-03-27T06:37:51.467Z,7.03
2019-03-27T06:40:23.762Z,4.62
2019-03-27T06:42:56.053Z,3.75
2019-03-27T06:45:28.354Z,5.65
2019-03-27T06:48:00.612Z,4.50
2019-03-27T06:50:32.941Z,5.20
2019-03-27T06:53:05.593Z,5.15
2019-03-27T06:55:37.846Z,3.92
2019-03-27T06:58:11.846Z,6.05
2019-03-27T07:00:44.098Z,4.40
2019-03-27T07:03:16.402Z,6.65
2019-03-27T07:05:49.637Z,3.58
2019-03-27T07:08:21.944Z,5.17
2019-03-27T07:10:54.197Z,2.52
2019-03-27T07:13:26.574Z,6.90
2019-03-27T07:15:58.866Z,8.48
2019-03-27T07:18:40.058Z,6.87
2019-03-27T07:21:05.170Z,2.83
2019-03-27T07:23:37.643Z,5.00
2019-03-27T07:26:09.935Z,5.17
2019-03-27T07:28:42.318Z,6.40
2019-03-27T07:31:14.636Z,4.25
2019-03-27T07:33:46.887Z,5.00
2019-03-27T07:36:19.198Z,5.20
2019-03-27T07:38:51.514Z,4.65
2019-03-27T07:41:23.860Z,4.65
2019-03-27T07:43:57.245Z,5.95
2019-03-27T07:46:29.538Z,6.83
2019-03-27T07:49:01.853Z,5.12
2019-03-27T07:51:34.407Z,6.22
2019-03-27T07:54:06.794Z,4.25
2019-03-27T07:56:40.463Z,3.47
2019-03-27T07:59:12.829Z,4.92
2019-03-27T08:01:45.133Z,2.33
2019-03-27T08:04:17.381Z,5.15
2019-03-27T08:06:49.626Z,3.65
2019-03-27T08:09:23.128Z,4.30
2019-03-27T08:11:55.608Z,6.85
2019-03-27T08:14:27.910Z,4.65
2019-03-27T08:17:00.204Z,6.47
2019-03-27T08:19:32.460Z,5.00
2019-03-27T08:22:04.773Z,3.33
2019-03-27T08:24:37.075Z,5.62
2019-03-27T08:32:00.361Z,5.30
2019-03-27T08:35:10.504Z,4.28
2019-03-27T08:37:44.534Z,8.23
2019-03-27T08:40:16.762Z,2.77
2019-03-27T08:42:49.044Z,3.65
2019-03-27T08:45:21.304Z,6.17
2019-03-27T08:47:53.544Z,3.25
2019-03-27T08:50:25.796Z,4.90
2019-03-27T08:52:58.058Z,5.28
2019-03-27T08:55:30.328Z,5.30
2019-03-27T08:58:02.595Z,5.55
2019-03-27T09:00:54.643Z,2.50
2019-03-27T09:03:26.897Z,4.10
2019-03-27T09:05:59.271Z,4.17
2019-03-27T09:08:31.557Z,4.37
2019-03-27T09:11:04.803Z,3.98
2019-03-27T09:13:37.269Z,3.08
2019-03-27T09:16:11.164Z,3.17
2019-03-27T09:18:43.413Z,3.77
2019-03-27T09:21:15.729Z,2.67
2019-03-27T09:23:47.984Z,4.97
2019-03-27T09:26:20.270Z,4.35
2019-03-27T09:28:52.530Z,4.65
2019-03-27T09:31:25.269Z,5.33
2019-03-27T09:33:57.663Z,3.20
2019-03-27T09:36:30.088Z,3.37
2019-03-27T09:39:02.371Z,7.03
2019-03-27T09:41:35.832Z,3.67
2019-03-27T09:44:08.128Z,5.37
2019-03-27T09:46:40.376Z,3.85
2019-03-27T09:49:12.709Z,2.58
2019-03-27T09:51:44.945Z,4.33
2019-03-27T09:54:17.262Z,5.70
2019-03-27T09:56:49.516Z,3.50
2019-03-27T09:59:21.803Z,5.25
2019-03-27T10:01:54.137Z,2.37
2019-03-27T10:04:27.542Z,5.30
2019-03-27T10:06:59.840Z,6.10
2019-03-27T10:09:32.106Z,7.53
2019-03-27T10:12:05.082Z,4.37
2019-03-27T10:14:37.362Z,6.75
2019-03-27T10:17:10.142Z,3.08
2019-03-27T10:19:42.409Z,5.20
2019-03-27T10:22:14.682Z,2.75
2019-03-27T10:24:47.022Z,4.25
2019-03-27T10:27:19.294Z,2.30
2019-03-27T10:29:51.636Z,5.37
2019-03-27T10:32:23.903Z,4.25
2019-03-27T10:34:56.210Z,2.85
2019-03-27T10:37:28.460Z,4.55
2019-03-27T10:40:00.761Z,4.22
2019-03-27T10:42:33.015Z,5.37
2019-03-27T10:45:05.384Z,7.00
2019-03-27T10:47:37.709Z,2.83
2019-03-27T10:50:17.660Z,2.98
2019-03-27T10:52:43.996Z,6.85
2019-03-27T10:55:16.301Z,3.42
2019-03-27T10:57:48.540Z,3.92
2019-03-27T11:00:20.839Z,4.22
2019-03-27T11:02:53.189Z,4.42
2019-03-27T11:05:25.618Z,3.02
2019-03-27T11:07:57.890Z,3.15
2019-03-27T11:10:30.165Z,5.05
2019-03-27T11:13:02.540Z,5.75
2019-03-27T11:15:34.772Z,5.85
2019-03-27T11:18:07.948Z,3.20
2019-03-27T11:20:42.046Z,4.65
2019-03-27T11:23:14.324Z,7.53
2019-03-27T11:25:46.568Z,3.92
2019-03-27T11:28:18.858Z,5.17
2019-03-27T11:30:51.109Z,3.65
2019-03-27T11:33:23.398Z,3.87
2019-03-27T11:35:55.642Z,4.03
2019-03-27T11:38:27.965Z,3.70
2019-03-27T11:41:00.264Z,3.47
2019-03-27T11:43:32.583Z,3.15
2019-03-27T11:46:05.611Z,5.55
2019-03-27T11:48:37.903Z,3.83
2019-03-27T11:51:10.281Z,8.33
2019-03-27T11:53:42.570Z,4.10
2019-03-27T11:56:14.868Z,4.03
2019-03-27T11:58:47.172Z,4.72
2019-03-27T12:01:19.471Z,8.58
2019-03-27T12:03:51.725Z,2.00
2019-03-27T12:06:24.025Z,4.00
2019-03-27T12:08:56.612Z,4.55
2019-03-27T12:11:28.919Z,3.42
2019-03-27T12:14:01.148Z,4.78
2019-03-27T12:16:33.586Z,3.70
2019-03-27T12:19:05.946Z,3.77
2019-03-27T12:21:38.268Z,4.30
2019-03-27T12:24:10.862Z,3.72
2019-03-27T12:26:43.829Z,8.70
2019-03-27T12:29:18.140Z,7.62
2019-03-27T12:31:51.134Z,7.00
2019-03-27T12:34:23.452Z,4.20
2019-03-27T12:36:55.767Z,5.17
2019-03-27T12:39:28.110Z,2.87
2019-03-27T12:42:00.420Z,4.70
2019-03-27T12:44:32.696Z,5.35
2019-03-27T12:47:06.531Z,3.17
2019-03-27T12:49:38.933Z,5.60
2019-03-27T12:52:11.232Z,3.65
2019-03-27T12:54:43.688Z,4.72
2019-03-27T12:57:16.010Z,2.30
2019-03-27T12:59:48.287Z,2.52
2019-03-27T13:02:20.890Z,4.62
2019-03-27T13:04:53.134Z,3.90
2019-03-27T13:07:25.393Z,2.12
2019-03-27T13:09:57.690Z,2.42
2019-03-27T13:12:30.098Z,5.45
2019-03-27T13:15:02.372Z,3.12
2019-03-27T13:17:34.765Z,2.85
2019-03-27T13:20:07.553Z,5.70
2019-03-27T13:22:39.880Z,4.33
2019-03-27T13:25:12.133Z,4.15
2019-03-27T13:27:47.370Z,4.42
2019-03-27T13:30:19.663Z,5.28
2019-03-27T13:32:51.929Z,3.77
2019-03-27T13:35:24.178Z,5.55
2019-03-27T13:37:56.511Z,3.90
2019-03-27T13:40:28.752Z,7.15
2019-03-27T13:43:01.033Z,7.05
2019-03-27T13:45:33.343Z,3.92
2019-03-27T13:48:05.677Z,5.33
2019-03-27T13:50:38.129Z,4.78
2019-03-27T13:53:10.499Z,4.37
2019-03-27T13:55:42.817Z,5.25
2019-03-27T13:58:15.227Z,4.50
2019-03-27T14:00:47.511Z,6.33
2019-03-27T14:03:19.849Z,8.23
2019-03-27T14:05:52.135Z,3.37
2019-03-27T14:08:24.413Z,2.98
2019-03-27T14:10:57.030Z,6.33
2019-03-27T14:13:29.487Z,4.70
2019-03-27T14:16:01.928Z,4.65
2019-03-27T14:18:34.242Z,4.37
2019-03-27T14:21:06.851Z,5.12
2019-03-27T14:23:39.117Z,8.80
2019-03-27T14:26:13.109Z,3.37
2019-03-27T14:28:45.357Z,9.00
2019-03-27T14:31:18.602Z,8.33
2019-03-27T14:33:50.883Z,3.20
2019-03-27T14:36:23.157Z,4.05
2019-03-27T14:38:55.443Z,3.08
2019-03-27T14:41:27.755Z,4.17
2019-03-27T14:44:00.020Z,2.20
2019-03-27T14:46:32.331Z,5.60
2019-03-27T14:49:04.605Z,7.67
2019-03-27T14:51:36.905Z,4.20
2019-03-27T14:54:09.208Z,6.20
2019-03-27T14:56:41.518Z,4.67
2019-03-27T14:59:13.800Z,7.28
2019-03-27T15:01:47.351Z,3.67
2019-03-27T15:04:19.922Z,4.72
2019-03-27T15:06:52.228Z,5.85
2019-03-27T15:09:24.548Z,1.98
2019-03-27T15:11:57.230Z,3.22
2019-03-27T15:14:29.524Z,4.17
2019-03-27T15:17:01.818Z,4.95
2019-03-27T15:19:35.164Z,4.78
2019-03-27T15:22:21.455Z,3.10
2019-03-27T15:24:41.386Z,6.95
2019-03-27T15:27:13.674Z,4.25
2019-03-27T15:29:45.990Z,5.85
2019-03-27T15:32:18.233Z,1.95
2019-03-27T15:34:50.571Z,3.37
2019-03-27T15:37:22.918Z,5.40
2019-03-27T15:39:55.342Z,4.35
2019-03-27T15:42:27.629Z,2.52
2019-03-27T15:44:59.898Z,4.28
2019-03-27T15:47:32.151Z,3.75
2019-03-27T15:50:05.125Z,2.90
2019-03-27T15:52:37.505Z,4.08
2019-03-27T15:55:10.145Z,2.75
2019-03-27T15:57:42.444Z,4.97
2019-03-27T16:00:14.837Z,4.50
2019-03-27T16:02:47.179Z,3.50
2019-03-27T16:05:19.423Z,4.03
2019-03-27T16:07:52.246Z,5.00
2019-03-27T16:10:24.680Z,2.60
2019-03-27T16:12:57.159Z,3.95
2019-03-27T16:15:30.022Z,3.35
2019-03-27T16:18:02.669Z,3.10
2019-03-27T16:20:35.469Z,3.87
2019-03-27T16:23:07.868Z,7.62
2019-03-27T16:25:40.167Z,3.67
2019-03-27T16:28:12.409Z,3.72
2019-03-27T16:30:44.703Z,2.47
2019-03-27T16:33:16.975Z,36.03
2019-03-27T16:35:49.465Z,4.65
2019-03-27T16:38:21.698Z,7.25
2019-03-27T16:40:54.656Z,3.67
2019-03-27T16:43:27.167Z,4.53
2019-03-27T16:45:59.522Z,4.25
2019-03-27T16:48:32.112Z,4.08
2019-03-27T16:51:05.785Z,2.27
2019-03-27T16:53:38.188Z,4.03
2019-03-27T16:56:10.458Z,3.35
2019-03-27T16:58:42.849Z,1.80
2019-03-27T17:01:15.137Z,2.40
2019-03-27T17:03:47.395Z,2.15
2019-03-27T17:06:19.636Z,2.52
2019-03-27T17:08:51.883Z,3.83
2019-03-27T17:11:24.580Z,4.53
2019-03-27T17:13:56.849Z,2.33
2019-03-27T17:16:29.092Z,4.10
2019-03-27T17:19:01.386Z,3.65
2019-03-27T17:21:33.651Z,6.90
2019-03-27T17:24:05.980Z,7.60
2019-03-27T17:26:38.637Z,6.80
2019-03-27T17:29:11.295Z,5.40
2019-03-27T17:31:43.602Z,7.15
2019-03-27T17:34:15.959Z,5.40
2019-03-27T17:36:48.301Z,8.73
2019-03-27T17:39:20.415Z,7.20
2019-03-27T17:41:52.676Z,4.85
2019-03-27T17:44:24.936Z,11.18
2019-03-27T17:46:57.789Z,4.45
2019-03-27T17:49:30.032Z,10.70
2019-03-27T17:52:02.332Z,15.75
2019-03-27T17:54:34.602Z,18.12
2019-03-27T17:57:06.858Z,13.90
2019-03-27T17:59:39.145Z,15.93
2019-03-27T18:02:11.412Z,40.38
2019-03-27T18:04:43.721Z,46.40
2019-03-27T18:07:15.997Z,13.83
2019-03-27T18:09:48.283Z,5.12
2019-03-27T18:12:22.523Z,7.75
2019-03-27T18:14:54.768Z,5.00
2019-03-27T18:17:27.027Z,6.28
2019-03-27T18:19:59.368Z,6.35
2019-03-27T18:22:31.621Z,4.97
2019-03-27T18:25:06.510Z,12.18
2019-03-27T18:27:38.758Z,6.42
2019-03-27T18:30:11.016Z,7.97
2019-03-27T18:32:43.351Z,4.42
2019-03-27T18:35:15.631Z,8.45
2019-03-27T18:37:47.928Z,7.75
2019-03-27T18:40:20.628Z,9.48
2019-03-27T18:42:52.907Z,41.28
2019-03-27T18:45:25.349Z,30.55
2019-03-27T18:47:57.663Z,22.32
2019-03-27T18:50:29.922Z,13.98
2019-03-27T18:53:02.163Z,24.80
2019-03-27T18:55:34.424Z,20.00
2019-03-27T18:58:07.130Z,16.65
2019-03-27T19:00:39.386Z,30.68
2019-03-27T19:03:11.692Z,32.48
2019-03-27T19:05:43.975Z,21.62
2019-03-27T19:08:16.261Z,28.32
2019-03-27T19:10:48.509Z,19.90
2019-03-27T19:13:20.791Z,17.02
2019-03-27T19:15:53.586Z,16.57
2019-03-27T19:18:25.856Z,33.28
2019-03-27T19:20:58.115Z,27.17
2019-03-27T19:23:30.407Z,32.15
2019-03-27T19:26:02.671Z,22.00
2019-03-27T19:28:34.889Z,16.70
2019-03-27T19:31:07.308Z,18.42
2019-03-27T19:33:40.886Z,15.00
2019-03-27T19:36:13.146Z,19.87
2019-03-27T19:38:45.431Z,27.98
2019-03-27T19:41:17.769Z,19.12
2019-03-27T19:43:50.049Z,195.62
2019-03-27T19:46:22.375Z,62.60
2019-03-27T19:48:55.129Z,82.20
2019-03-27T19:51:27.390Z,28.38
2019-03-27T19:53:59.688Z,31.70
2019-03-27T19:56:31.967Z,35.80
2019-03-27T19:59:04.228Z,30.45
2019-03-27T20:01:36.561Z,28.52
2019-03-27T20:04:10.073Z,24.12
2019-03-27T20:06:42.384Z,23.57
2019-03-27T20:09:14.653Z,24.92
2019-03-27T20:11:47.147Z,22.55
2019-03-27T20:14:19.549Z,21.42
2019-03-27T20:16:51.832Z,27.40
2019-03-27T20:19:24.208Z,19.52
2019-03-27T20:21:56.487Z,26.30
2019-03-27T20:24:40.458Z,24.05
2019-03-27T20:27:02.675Z,25.20
2019-03-27T20:29:35.036Z,32.73
2019-03-27T20:32:08.136Z,29.18
2019-03-27T20:34:40.390Z,24.85
2019-03-27T20:37:12.768Z,25.00
2019-03-27T20:39:45.126Z,27.13
2019-03-27T20:42:17.410Z,19.62
2019-03-27T20:44:49.873Z,24.20
2019-03-27T20:47:22.153Z,24.70
2019-03-27T20:49:54.433Z,23.92
2019-03-27T20:52:26.696Z,32.33
2019-03-27T20:54:58.980Z,28.45
2019-03-27T20:57:31.370Z,22.32
2019-03-27T21:00:03.769Z,29.75
2019-03-27T21:02:36.075Z,22.45
2019-03-27T21:05:08.973Z,24.47
2019-03-27T21:07:41.242Z,31.25
2019-03-27T21:10:15.319Z,24.63
2019-03-27T21:12:47.590Z,28.15
2019-03-27T21:15:19.903Z,32.90
2019-03-27T21:17:52.202Z,26.93
2019-03-27T21:20:24.489Z,29.67
2019-03-27T21:22:56.925Z,26.85
2019-03-27T21:25:29.208Z,27.20
2019-03-27T21:28:04.708Z,26.57
2019-03-27T21:30:38.464Z,31.55
2019-03-27T21:33:10.847Z,25.00
2019-03-27T21:35:43.224Z,25.70
2019-03-27T21:38:15.531Z,22.27
2019-03-27T21:40:47.895Z,28.35
2019-03-27T21:43:20.222Z,33.50
2019-03-27T21:45:52.876Z,27.20
2019-03-27T21:48:25.171Z,27.25
2019-03-27T21:50:57.499Z,35.33
2019-03-27T21:53:29.848Z,25.35
2019-03-27T21:56:02.153Z,34.27
2019-03-27T21:58:34.541Z,23.55
2019-03-27T22:01:08.086Z,24.45
2019-03-27T22:03:40.418Z,24.85
2019-03-27T22:06:12.776Z,19.30
2019-03-27T22:08:45.071Z,20.70
2019-03-27T22:11:18.272Z,26.07
2019-03-27T22:13:50.634Z,21.07
2019-03-27T22:16:23.022Z,21.00
2019-03-27T22:18:55.395Z,28.47
2019-03-27T22:21:27.750Z,19.57
2019-03-27T22:24:00.131Z,19.67
2019-03-27T22:26:32.458Z,28.15
2019-03-27T22:29:05.305Z,25.40
2019-03-27T22:31:37.673Z,26.07
2019-03-27T22:34:10.538Z,25.50
2019-03-27T22:36:42.924Z,24.05
2019-03-27T22:39:15.238Z,23.20
2019-03-27T22:41:48.022Z,25.85
2019-03-27T22:44:20.370Z,32.42
2019-03-27T22:46:52.696Z,26.52
2019-03-27T22:49:25.064Z,31.60
2019-03-27T22:51:57.844Z,32.90
2019-03-27T22:54:30.143Z,31.37
2019-03-27T22:57:02.481Z,23.35
2019-03-27T22:59:34.870Z,24.55
2019-03-27T23:02:07.158Z,22.67
2019-03-27T23:04:39.435Z,21.27
2019-03-27T23:07:11.792Z,33.45
2019-03-27T23:09:44.121Z,25.88
2019-03-27T23:12:16.456Z,26.23
2019-03-27T23:14:48.802Z,24.95
2019-03-27T23:17:21.231Z,30.72
2019-03-27T23:19:53.525Z,29.82
2019-03-27T23:22:25.895Z,32.80
2019-03-27T23:24:58.250Z,24.10
2019-03-27T23:27:30.559Z,25.45
2019-03-27T23:30:04.078Z,25.65
2019-03-27T23:32:36.445Z,27.52
2019-03-27T23:35:11.999Z,28.90
2019-03-27T23:37:44.340Z,29.85
2019-03-27T23:40:17.187Z,31.33
2019-03-27T23:42:49.647Z,29.27
2019-03-27T23:45:21.982Z,25.75
2019-03-27T23:47:54.383Z,26.70
2019-03-27T23:50:26.785Z,29.45
2019-03-27T23:52:59.115Z,34.30
2019-03-27T23:55:31.426Z,29.85
2019-03-27T23:58:03.752Z,25.65
